Time;durP1;ratioP1;P1;durP2;ratioP2;P2;SDS_P1;SDS_P2;PMS_P1;PMS_P2;Temp;Humidity;BMP_temperature;BMP_pressure;BME280_temperature;BME280_humidity;BME280_pressure;Samples;Min_cycle;Max_cycle;Signal;HPM_P1;HPM_P2
2022/02/21 00:02:23;;;;;;;;;0.00;0.00;;;;;;;;5016412;28;11818;-76
2022/02/21 00:04:51;;;;;;;;;6.50;1.00;;;;;;;;5016911;28;10971;-76
2022/02/21 00:07:18;;;;;;;;;0.25;0.25;;;;;;;;5012196;28;11046;-73
2022/02/21 00:09:47;;;;;;;;;0.00;0.00;;;;;;;;5009082;28;11774;-75
2022/02/21 00:12:15;;;;;;;;;1.25;1.25;;;;;;;;5016781;28;11067;-75
2022/02/21 00:14:42;;;;;;;;;1.50;1.50;;;;;;;;5021328;28;11783;-75
2022/02/21 00:17:10;;;;;;;;;1.50;0.00;;;;;;;;5018389;28;12047;-74
2022/02/21 00:19:37;;;;;;;;;1.50;0.00;;;;;;;;5009269;28;10936;-75
2022/02/21 00:22:05;;;;;;;;;0.25;0.25;;;;;;;;5019358;28;10960;-78
2022/02/21 00:24:32;;;;;;;;;1.00;0.50;;;;;;;;5020051;28;10925;-78
2022/02/21 00:27:01;;;;;;;;;3.25;1.00;;;;;;;;5013369;28;10992;-76
2022/02/21 00:29:29;;;;;;;;;1.00;1.00;;;;;;;;5018248;28;11077;-76
2022/02/21 00:31:57;;;;;;;;;1.50;0.00;;;;;;;;5014425;28;10953;-76
2022/02/21 00:34:24;;;;;;;;;2.00;2.00;;;;;;;;5019143;28;11240;-76
2022/02/21 00:36:51;;;;;;;;;3.00;0.00;;;;;;;;5019875;28;11169;-75
2022/02/21 00:39:19;;;;;;;;;3.00;0.00;;;;;;;;5017336;28;10921;-75
2022/02/21 00:41:46;;;;;;;;;2.50;1.00;;;;;;;;5020044;28;11078;-75
2022/02/21 00:44:15;;;;;;;;;0.00;0.00;;;;;;;;5019028;28;11207;-77
2022/02/21 00:46:43;;;;;;;;;1.00;1.00;;;;;;;;5009271;28;11167;-76
2022/02/21 00:49:10;;;;;;;;;2.00;0.50;;;;;;;;5025749;28;11047;-75
2022/02/21 00:51:37;;;;;;;;;3.25;0.00;;;;;;;;5019402;28;12379;-77
2022/02/21 00:54:04;;;;;;;;;2.00;0.00;;;;;;;;5019220;28;11859;-77
2022/02/21 00:56:32;;;;;;;;;1.50;0.50;;;;;;;;5025918;28;11244;-75
2022/02/21 00:58:59;;;;;;;;;2.00;0.00;;;;;;;;5011931;28;11213;-76
2022/02/21 01:01:28;;;;;;;;;1.00;1.00;;;;;;;;5020243;28;11439;-76
2022/02/21 01:03:56;;;;;;;;;1.00;1.00;;;;;;;;5014706;28;11462;-77
2022/02/21 01:06:23;;;;;;;;;1.50;0.00;;;;;;;;5018990;28;11245;-77
2022/02/21 01:08:50;;;;;;;;;1.00;1.00;;;;;;;;5017690;28;12020;-77
2022/02/21 01:11:19;;;;;;;;;2.00;1.00;;;;;;;;5020564;28;11954;-76
2022/02/21 01:13:47;;;;;;;;;1.00;1.00;;;;;;;;5011589;28;11481;-77
2022/02/21 01:16:14;;;;;;;;;1.00;1.00;;;;;;;;5014228;28;12107;-75
2022/02/21 01:18:43;;;;;;;;;1.25;1.00;;;;;;;;5021514;28;11481;-76
2022/02/21 01:21:10;;;;;;;;;0.75;0.75;;;;;;;;5016190;28;11154;-75
2022/02/21 01:23:40;;;;;;;;;1.75;1.50;;;;;;;;5017557;28;11280;-76
2022/02/21 01:26:07;;;;;;;;;1.50;0.00;;;;;;;;5019045;28;11476;-76
2022/02/21 01:28:34;;;;;;;;;2.50;1.75;;;;;;;;5018154;28;11485;-77
2022/02/21 01:31:01;;;;;;;;;5.00;1.00;;;;;;;;5018157;28;11422;-75
2022/02/21 01:33:29;;;;;;;;;1.25;1.25;;;;;;;;5008362;28;11456;-75
2022/02/21 01:35:59;;;;;;;;;0.25;0.25;;;;;;;;5023867;28;11497;-77
2022/02/21 01:38:26;;;;;;;;;3.50;0.75;;;;;;;;5022710;28;11484;-75
2022/02/21 01:40:53;;;;;;;;;3.75;1.75;;;;;;;;5022716;28;11601;-76
2022/02/21 01:43:20;;;;;;;;;6.00;4.75;;;;;;;;5019677;28;11607;-78
2022/02/21 01:45:48;;;;;;;;;1.25;1.25;;;;;;;;5054571;28;12292;-77
2022/02/21 01:48:15;;;;;;;;;4.25;2.00;;;;;;;;5021875;28;11495;-75
2022/02/21 01:50:44;;;;;;;;;2.00;1.50;;;;;;;;5016715;28;11505;-76
2022/02/21 01:53:13;;;;;;;;;4.00;3.50;;;;;;;;5020998;28;11487;-76
2022/02/21 01:55:40;;;;;;;;;5.00;2.00;;;;;;;;5047726;28;12755;-76
2022/02/21 01:58:08;;;;;;;;;2.75;1.00;;;;;;;;5018474;28;11487;-76
2022/02/21 02:00:35;;;;;;;;;1.25;0.00;;;;;;;;5018968;28;11420;-76
2022/02/21 02:03:03;;;;;;;;;1.00;1.00;;;;;;;;5012646;28;11559;-75
2022/02/21 02:05:30;;;;;;;;;0.00;0.00;;;;;;;;5032835;28;11493;-77
2022/02/21 02:07:57;;;;;;;;;3.25;1.00;;;;;;;;5021750;28;11493;-76
2022/02/21 02:10:26;;;;;;;;;1.00;1.00;;;;;;;;5019845;28;11518;-78
2022/02/21 02:12:54;;;;;;;;;3.25;1.00;;;;;;;;5020916;28;11499;-76
2022/02/21 02:15:21;;;;;;;;;1.00;1.00;;;;;;;;5039615;28;12299;-76
2022/02/21 02:17:49;;;;;;;;;3.25;0.25;;;;;;;;5020448;28;11456;-76
2022/02/21 02:20:18;;;;;;;;;1.25;1.00;;;;;;;;5023908;28;11488;-76
2022/02/21 02:22:47;;;;;;;;;1.25;0.25;;;;;;;;5023947;28;11450;-76
2022/02/21 02:25:14;;;;;;;;;2.00;1.00;;;;;;;;5017360;28;11533;-77
2022/02/21 02:27:42;;;;;;;;;1.00;1.00;;;;;;;;5047758;28;11608;-80
2022/02/21 02:30:10;;;;;;;;;1.25;1.25;;;;;;;;5023084;28;11599;-76
2022/02/21 02:32:37;;;;;;;;;4.00;1.75;;;;;;;;5017393;28;12400;-76
2022/02/21 02:35:06;;;;;;;;;1.00;0.75;;;;;;;;5007921;28;11531;-76
2022/02/21 02:37:33;;;;;;;;;5.25;1.25;;;;;;;;5012428;28;12314;-76
2022/02/21 02:40:02;;;;;;;;;1.50;1.50;;;;;;;;5019793;28;12279;-76
2022/02/21 02:42:29;;;;;;;;;4.00;2.00;;;;;;;;5018791;28;11479;-76
2022/02/21 02:44:56;;;;;;;;;1.75;1.75;;;;;;;;5019487;28;11467;-76
2022/02/21 02:47:24;;;;;;;;;2.25;1.00;;;;;;;;5021824;28;11506;-76
2022/02/21 02:49:51;;;;;;;;;8.25;4.00;;;;;;;;5014131;28;11471;-77
2022/02/21 02:52:18;;;;;;;;;4.00;1.00;;;;;;;;5015221;28;11476;-76
2022/02/21 02:54:45;;;;;;;;;4.75;2.00;;;;;;;;5017853;28;11598;-75
2022/02/21 02:57:14;;;;;;;;;0.50;0.50;;;;;;;;5010954;28;11482;-76
2022/02/21 02:59:41;;;;;;;;;1.00;1.00;;;;;;;;5009137;28;12296;-75
2022/02/21 03:02:09;;;;;;;;;0.00;0.00;;;;;;;;5015442;28;11444;-77
2022/02/21 03:04:36;;;;;;;;;2.75;1.50;;;;;;;;5010447;28;11505;-77
2022/02/21 03:07:03;;;;;;;;;0.50;0.50;;;;;;;;5019304;28;11458;-76
2022/02/21 03:09:31;;;;;;;;;1.00;1.00;;;;;;;;5022087;28;11503;-76
2022/02/21 03:11:59;;;;;;;;;0.00;0.00;;;;;;;;5007558;28;11476;-76
2022/02/21 03:14:28;;;;;;;;;0.25;0.25;;;;;;;;5017500;28;11675;-74
2022/02/21 03:16:55;;;;;;;;;1.75;0.00;;;;;;;;5008414;28;11529;-76
2022/02/21 03:19:25;;;;;;;;;1.50;1.50;;;;;;;;5015091;28;11488;-76
2022/02/21 03:21:54;;;;;;;;;0.75;0.50;;;;;;;;5017707;28;11490;-76
2022/02/21 03:24:21;;;;;;;;;1.00;1.00;;;;;;;;5018816;28;11542;-76
2022/02/21 03:26:49;;;;;;;;;4.25;1.00;;;;;;;;5013297;28;11477;-76
2022/02/21 03:29:16;;;;;;;;;0.50;0.50;;;;;;;;5017390;28;12310;-76
2022/02/21 03:31:45;;;;;;;;;3.75;2.00;;;;;;;;5018930;28;11477;-75
2022/02/21 03:34:12;;;;;;;;;1.50;1.00;;;;;;;;5023409;28;11596;-76
2022/02/21 03:36:40;;;;;;;;;4.50;2.50;;;;;;;;5026545;28;11487;-76
2022/02/21 03:39:07;;;;;;;;;3.00;0.50;;;;;;;;5026521;28;11499;-75
2022/02/21 03:41:35;;;;;;;;;1.00;1.00;;;;;;;;5024080;28;11450;-76
2022/02/21 03:44:03;;;;;;;;;1.00;1.00;;;;;;;;5018794;28;11457;-76
2022/02/21 03:46:31;;;;;;;;;4.75;2.00;;;;;;;;5013172;28;11443;-76
2022/02/21 03:49:00;;;;;;;;;1.25;1.00;;;;;;;;5011656;28;11454;-76
2022/02/21 03:51:27;;;;;;;;;0.25;0.25;;;;;;;;5022590;28;11596;-76
2022/02/21 03:53:54;;;;;;;;;5.50;2.00;;;;;;;;5019326;28;11594;-76
2022/02/21 03:56:21;;;;;;;;;8.25;4.00;;;;;;;;5026706;28;11580;-75
2022/02/21 03:58:48;;;;;;;;;1.50;1.50;;;;;;;;5017493;28;11473;-76
2022/02/21 04:01:16;;;;;;;;;1.00;1.00;;;;;;;;5017940;28;11879;-76
2022/02/21 04:03:43;;;;;;;;;3.25;1.00;;;;;;;;5012858;28;11470;-76
2022/02/21 04:06:12;;;;;;;;;4.00;0.00;;;;;;;;5018208;28;11594;-76
2022/02/21 04:08:40;;;;;;;;;3.25;2.25;;;;;;;;5023903;28;11444;-77
2022/02/21 04:11:07;;;;;;;;;0.50;0.50;;;;;;;;5006786;28;11492;-76
2022/02/21 04:13:34;;;;;;;;;4.25;2.00;;;;;;;;5017473;28;11484;-75
2022/02/21 04:16:02;;;;;;;;;6.00;2.00;;;;;;;;5023631;28;11662;-76
2022/02/21 04:18:29;;;;;;;;;4.00;0.00;;;;;;;;5018389;28;11463;-75
2022/02/21 04:20:57;;;;;;;;;1.00;1.00;;;;;;;;5021616;28;11452;-75
2022/02/21 04:23:26;;;;;;;;;1.00;0.00;;;;;;;;5016435;28;11461;-76
2022/02/21 04:25:53;;;;;;;;;0.00;0.00;;;;;;;;5007205;28;12268;-75
2022/02/21 04:28:20;;;;;;;;;0.50;0.50;;;;;;;;5018181;28;11487;-75
2022/02/21 04:30:47;;;;;;;;;0.00;0.00;;;;;;;;5025161;28;11371;-75
2022/02/21 04:33:15;;;;;;;;;0.75;0.00;;;;;;;;5020154;28;11592;-75
2022/02/21 04:35:43;;;;;;;;;1.00;1.00;;;;;;;;5020031;28;11467;-76
2022/02/21 04:38:12;;;;;;;;;1.00;1.00;;;;;;;;5016358;28;11483;-75
2022/02/21 04:40:40;;;;;;;;;1.00;1.00;;;;;;;;5020675;28;11484;-76
2022/02/21 04:43:08;;;;;;;;;0.00;0.00;;;;;;;;5030364;28;11435;-75
2022/02/21 04:45:35;;;;;;;;;0.00;0.00;;;;;;;;5017680;28;12377;-75
2022/02/21 04:48:02;;;;;;;;;1.00;1.00;;;;;;;;5018663;28;11460;-77
2022/02/21 04:50:29;;;;;;;;;0.00;0.00;;;;;;;;5022437;28;11472;-77
2022/02/21 04:52:57;;;;;;;;;0.00;0.00;;;;;;;;5021539;28;11677;-77
2022/02/21 04:55:24;;;;;;;;;0.00;0.00;;;;;;;;5043528;28;11465;-75
2022/02/21 04:57:53;;;;;;;;;0.00;0.00;;;;;;;;5016334;28;11482;-75
2022/02/21 05:00:20;;;;;;;;;0.00;0.00;;;;;;;;5016899;28;12347;-76
2022/02/21 05:02:48;;;;;;;;;1.00;0.00;;;;;;;;5023824;28;11481;-76
2022/02/21 05:05:15;;;;;;;;;0.00;0.00;;;;;;;;5045625;28;11499;-75
2022/02/21 05:07:44;;;;;;;;;2.00;0.00;;;;;;;;5023621;28;11459;-75
2022/02/21 05:10:14;;;;;;;;;0.00;0.00;;;;;;;;5028067;28;12297;-76
2022/02/21 05:12:41;;;;;;;;;0.50;0.00;;;;;;;;5026389;28;12690;-77
2022/02/21 05:15:12;;;;;;;;;0.00;0.00;;;;;;;;5027243;28;11541;-76
2022/02/21 05:17:40;;;;;;;;;0.00;0.00;;;;;;;;5024681;28;11477;-79
2022/02/21 05:20:08;;;;;;;;;0.00;0.00;;;;;;;;5010995;28;11496;-79
2022/02/21 05:22:36;;;;;;;;;0.00;0.00;;;;;;;;5018644;28;12251;-78
2022/02/21 05:25:05;;;;;;;;;0.00;0.00;;;;;;;;5012768;28;11503;-76
2022/02/21 05:27:35;;;;;;;;;1.00;0.00;;;;;;;;5022064;28;11476;-75
2022/02/21 05:30:02;;;;;;;;;0.25;0.25;;;;;;;;5023953;28;11561;-75
2022/02/21 05:32:31;;;;;;;;;0.00;0.00;;;;;;;;5002301;28;12089;-76
2022/02/21 05:34:59;;;;;;;;;2.50;0.00;;;;;;;;4998216;28;12283;-79
2022/02/21 05:37:26;;;;;;;;;0.00;0.00;;;;;;;;4990487;28;11484;-75
2022/02/21 05:39:53;;;;;;;;;0.00;0.00;;;;;;;;5003409;28;11502;-76
2022/02/21 05:42:21;;;;;;;;;0.00;0.00;;;;;;;;5000013;28;11430;-76
2022/02/21 05:44:48;;;;;;;;;0.25;0.25;;;;;;;;4996821;28;11427;-76
2022/02/21 05:47:15;;;;;;;;;0.00;0.00;;;;;;;;4997845;28;11411;-75
2022/02/21 05:49:44;;;;;;;;;0.00;0.00;;;;;;;;4998318;28;11544;-85
2022/02/21 05:52:11;;;;;;;;;0.00;0.00;;;;;;;;5000878;28;11514;-76
2022/02/21 05:54:39;;;;;;;;;0.00;0.00;;;;;;;;5005840;28;11463;-76
2022/02/21 05:57:07;;;;;;;;;0.00;0.00;;;;;;;;5003323;28;11503;-76
2022/02/21 05:59:34;;;;;;;;;0.00;0.00;;;;;;;;5002682;28;12282;-75
2022/02/21 06:02:01;;;;;;;;;0.50;0.50;;;;;;;;4989699;28;12219;-75
2022/02/21 06:04:28;;;;;;;;;1.50;1.50;;;;;;;;4998017;28;13672;-76
2022/02/21 06:06:57;;;;;;;;;0.00;0.00;;;;;;;;5002068;28;11439;-76
2022/02/21 06:09:25;;;;;;;;;0.00;0.00;;;;;;;;5003011;28;11411;-75
2022/02/21 06:11:52;;;;;;;;;0.00;0.00;;;;;;;;5000742;28;11443;-76
2022/02/21 06:14:20;;;;;;;;;2.00;0.25;;;;;;;;5002608;28;11416;-76
2022/02/21 06:16:47;;;;;;;;;0.00;0.00;;;;;;;;4999801;28;12328;-76
2022/02/21 06:19:15;;;;;;;;;0.00;0.00;;;;;;;;4996333;28;11437;-76
2022/02/21 06:21:42;;;;;;;;;4.00;1.00;;;;;;;;4998585;28;11425;-77
2022/02/21 06:24:11;;;;;;;;;3.50;1.00;;;;;;;;4996102;28;11585;-77
2022/02/21 06:26:39;;;;;;;;;0.50;0.50;;;;;;;;5003878;28;11427;-76
2022/02/21 06:29:06;;;;;;;;;1.00;1.00;;;;;;;;5001530;28;11446;-82
2022/02/21 06:31:33;;;;;;;;;1.75;0.75;;;;;;;;4998175;28;11513;-85
2022/02/21 06:34:00;;;;;;;;;5.00;0.00;;;;;;;;5001057;28;11564;-86
2022/02/21 06:36:28;;;;;;;;;2.00;0.75;;;;;;;;5004102;28;11688;-86
2022/02/21 06:38:55;;;;;;;;;0.00;0.00;;;;;;;;5003032;28;11554;-85
2022/02/21 06:41:24;;;;;;;;;2.00;0.00;;;;;;;;5007001;28;11499;-83
2022/02/21 06:43:52;;;;;;;;;2.00;0.75;;;;;;;;5015845;28;11477;-80
2022/02/21 06:46:19;;;;;;;;;2.00;0.50;;;;;;;;5009502;28;11537;-83
2022/02/21 06:48:46;;;;;;;;;1.50;1.50;;;;;;;;5002095;28;12363;-81
2022/02/21 06:51:14;;;;;;;;;0.25;0.00;;;;;;;;5010050;28;11488;-81
2022/02/21 06:53:41;;;;;;;;;3.00;1.00;;;;;;;;5032319;28;11480;-81
2022/02/21 06:56:09;;;;;;;;;0.50;0.50;;;;;;;;5026326;28;11440;-81
2022/02/21 06:58:37;;;;;;;;;1.00;0.00;;;;;;;;5024554;28;11547;-83
2022/02/21 07:01:05;;;;;;;;;1.00;1.00;;;;;;;;5024775;28;11393;-82
2022/02/21 07:03:32;;;;;;;;;2.00;0.50;;;;;;;;5021706;28;11504;-82
2022/02/21 07:05:59;;;;;;;;;0.75;0.75;;;;;;;;5024533;28;11560;-82
2022/02/21 07:08:26;;;;;;;;;2.00;0.50;;;;;;;;5024552;28;12163;-84
2022/02/21 07:10:54;;;;;;;;;0.75;0.75;;;;;;;;5025806;28;11465;-84
2022/02/21 07:13:21;;;;;;;;;0.25;0.25;;;;;;;;5018351;28;11486;-82
2022/02/21 07:15:50;;;;;;;;;0.00;0.00;;;;;;;;5018442;28;11475;-83
2022/02/21 07:18:17;;;;;;;;;0.25;0.00;;;;;;;;5021283;28;11482;-84
2022/02/21 07:20:45;;;;;;;;;3.00;1.75;;;;;;;;5023054;28;11494;-83
2022/02/21 07:23:12;;;;;;;;;1.00;1.00;;;;;;;;5025738;28;11612;-83
2022/02/21 07:25:39;;;;;;;;;1.00;1.00;;;;;;;;5010246;28;11575;-81
2022/02/21 07:28:08;;;;;;;;;0.75;0.00;;;;;;;;5027582;28;11460;-83
2022/02/21 07:30:35;;;;;;;;;0.00;0.00;;;;;;;;5021821;28;11400;-84
2022/02/21 07:33:04;;;;;;;;;0.25;0.25;;;;;;;;5054968;28;11564;-82
2022/02/21 07:35:31;;;;;;;;;2.00;0.00;;;;;;;;5010948;28;11515;-85
2022/02/21 07:37:58;;;;;;;;;3.25;2.75;;;;;;;;5034291;28;11493;-86
2022/02/21 07:40:26;;;;;;;;;1.00;1.00;;;;;;;;5022659;28;11495;-79
2022/02/21 07:42:55;;;;;;;;;1.25;1.00;;;;;;;;5019645;28;11471;-80
2022/02/21 07:45:23;;;;;;;;;2.75;1.00;;;;;;;;5016307;28;11459;-80
2022/02/21 07:47:52;;;;;;;;;2.00;0.50;;;;;;;;5028066;28;11464;-80
2022/02/21 07:50:21;;;;;;;;;1.00;1.00;;;;;;;;5031086;28;11581;-78
2022/02/21 07:52:49;;;;;;;;;0.50;0.50;;;;;;;;5028580;28;11490;-82
2022/02/21 07:55:17;;;;;;;;;2.00;2.00;;;;;;;;5030912;28;11616;-79
2022/02/21 07:57:46;;;;;;;;;1.00;0.75;;;;;;;;5021821;28;11468;-79
2022/02/21 08:00:17;;;;;;;;;5.75;1.00;;;;;;;;5023428;28;11484;-81
2022/02/21 08:02:44;;;;;;;;;0.00;0.00;;;;;;;;5022174;28;11553;-82
2022/02/21 08:05:11;;;;;;;;;0.00;0.00;;;;;;;;5019135;28;11459;-81
2022/02/21 08:07:42;;;;;;;;;3.00;1.00;;;;;;;;5032714;28;11540;-83
2022/02/21 08:10:10;;;;;;;;;0.25;0.25;;;;;;;;5021664;28;11480;-79
2022/02/21 08:12:37;;;;;;;;;6.50;2.00;;;;;;;;5027406;28;11498;-82
2022/02/21 08:15:05;;;;;;;;;1.75;1.00;;;;;;;;5021807;28;11581;-82
2022/02/21 08:17:39;;;;;;;;;0.75;0.75;;;;;;;;5030119;28;11461;-85
2022/02/21 08:20:08;;;;;;;;;1.00;0.25;;;;;;;;5022313;28;11521;-79
2022/02/21 08:22:35;;;;;;;;;0.00;0.00;;;;;;;;5023656;28;11454;-82
2022/02/21 08:25:04;;;;;;;;;3.25;0.25;;;;;;;;5022618;28;11505;-83
2022/02/21 08:27:32;;;;;;;;;2.50;1.00;;;;;;;;5019372;28;11495;-82
2022/02/21 08:29:59;;;;;;;;;0.25;0.25;;;;;;;;5021377;28;11506;-81
2022/02/21 08:32:26;;;;;;;;;1.00;1.00;;;;;;;;5029430;28;11527;-80
2022/02/21 08:34:53;;;;;;;;;1.00;1.00;;;;;;;;5023163;28;11570;-81
2022/02/21 08:37:21;;;;;;;;;2.75;1.00;;;;;;;;5023135;28;11603;-81
2022/02/21 08:39:48;;;;;;;;;1.00;1.00;;;;;;;;5029434;28;12245;-81
2022/02/21 08:42:17;;;;;;;;;1.00;1.00;;;;;;;;5026976;28;11546;-82
2022/02/21 08:44:44;;;;;;;;;3.00;1.00;;;;;;;;5026124;28;11456;-82
2022/02/21 08:47:14;;;;;;;;;1.25;1.00;;;;;;;;5027375;28;11482;-82
2022/02/21 08:49:42;;;;;;;;;0.00;0.00;;;;;;;;5019623;28;11587;-79
2022/02/21 08:52:09;;;;;;;;;1.00;1.00;;;;;;;;5017152;28;11247;-80
2022/02/21 08:54:37;;;;;;;;;3.00;0.75;;;;;;;;5024587;28;11486;-80
2022/02/21 08:57:05;;;;;;;;;5.00;2.00;;;;;;;;5028589;28;11505;-80
2022/02/21 08:59:33;;;;;;;;;3.25;1.00;;;;;;;;5025385;28;11258;-81
2022/02/21 09:02:01;;;;;;;;;6.00;2.00;;;;;;;;5034437;28;11457;-80
2022/02/21 09:04:28;;;;;;;;;0.25;0.25;;;;;;;;5053822;28;11220;-79
2022/02/21 09:06:56;;;;;;;;;1.00;1.00;;;;;;;;5006821;28;11013;-81
2022/02/21 09:09:23;;;;;;;;;2.75;2.00;;;;;;;;5027343;28;11200;-80
2022/02/21 09:11:51;;;;;;;;;4.50;2.00;;;;;;;;5024974;28;11296;-81
2022/02/21 09:14:18;;;;;;;;;1.00;1.00;;;;;;;;5027586;28;10986;-80
2022/02/21 09:16:47;;;;;;;;;4.25;1.75;;;;;;;;5024492;28;11125;-81
2022/02/21 09:19:14;;;;;;;;;0.00;0.00;;;;;;;;5025889;28;11029;-81
2022/02/21 09:21:41;;;;;;;;;0.00;0.00;;;;;;;;5032628;28;11070;-81
2022/02/21 09:24:08;;;;;;;;;2.25;1.00;;;;;;;;5032957;28;10764;-81
2022/02/21 09:26:36;;;;;;;;;2.50;0.00;;;;;;;;5025551;28;10919;-82
2022/02/21 09:29:03;;;;;;;;;2.00;2.00;;;;;;;;5030822;28;10998;-80
2022/02/21 09:31:32;;;;;;;;;1.75;1.00;;;;;;;;5035049;28;11525;-76
2022/02/21 09:34:01;;;;;;;;;1.75;1.00;;;;;;;;5032086;28;10864;-80
2022/02/21 09:36:28;;;;;;;;;2.00;0.00;;;;;;;;5031327;28;10904;-79
2022/02/21 09:38:55;;;;;;;;;2.00;2.00;;;;;;;;5029955;28;10727;-82
2022/02/21 09:41:23;;;;;;;;;2.00;2.00;;;;;;;;5029995;28;10691;-79
2022/02/21 09:43:51;;;;;;;;;1.00;1.00;;;;;;;;5025952;28;10776;-78
2022/02/21 09:46:18;;;;;;;;;1.00;1.00;;;;;;;;5042979;28;10779;-81
2022/02/21 09:48:46;;;;;;;;;4.00;1.50;;;;;;;;5031664;28;10850;-81
2022/02/21 09:51:16;;;;;;;;;2.00;2.00;;;;;;;;5069708;28;10796;-81
2022/02/21 09:53:43;;;;;;;;;5.25;0.00;;;;;;;;5030115;28;10764;-80
2022/02/21 09:56:10;;;;;;;;;5.50;1.50;;;;;;;;5024462;28;10550;-80
2022/02/21 09:58:38;;;;;;;;;5.25;1.75;;;;;;;;5024491;28;10657;-80
2022/02/21 10:01:05;;;;;;;;;2.75;2.75;;;;;;;;5039668;28;10378;-81
2022/02/21 10:03:44;;;;;;;;;5.25;2.00;;;;;;;;5033041;28;10837;-81
2022/02/21 10:06:29;;;;;;;;;1.50;1.25;;;;;;;;5025528;28;10581;-80
2022/02/21 10:09:00;;;;;;;;;2.50;2.00;;;;;;;;5026140;28;10383;-77
2022/02/21 10:11:29;;;;;;;;;2.50;0.75;;;;;;;;5024997;28;10399;-80
2022/02/21 10:14:02;;;;;;;;;1.50;1.50;;;;;;;;5025674;28;10411;-81
2022/02/21 10:16:40;;;;;;;;;3.50;1.50;;;;;;;;5027958;28;10493;-83
2022/02/21 10:19:20;;;;;;;;;6.25;2.50;;;;;;;;5024205;28;11359;-82
2022/02/21 10:21:59;;;;;;;;;2.00;2.00;;;;;;;;5031370;28;10447;-83
2022/02/21 10:24:30;;;;;;;;;2.00;2.00;;;;;;;;5031891;28;10414;-81
2022/02/21 10:26:58;;;;;;;;;2.00;2.00;;;;;;;;5030296;28;11267;-80
2022/02/21 10:29:26;;;;;;;;;4.50;1.00;;;;;;;;5032296;28;10450;-82
2022/02/21 10:32:09;;;;;;;;;3.50;1.50;;;;;;;;5024150;28;10342;-83
2022/02/21 10:34:37;;;;;;;;;5.50;2.00;;;;;;;;5026198;28;11102;-81
2022/02/21 10:37:07;;;;;;;;;3.50;1.00;;;;;;;;5029665;28;10261;-80
2022/02/21 10:39:35;;;;;;;;;1.00;1.00;;;;;;;;5037184;28;10240;-80
2022/02/21 10:42:06;;;;;;;;;6.75;3.50;;;;;;;;5026645;28;10200;-80
2022/02/21 10:44:36;;;;;;;;;3.25;1.50;;;;;;;;5026337;28;10321;-80
2022/02/21 10:47:13;;;;;;;;;2.00;1.00;;;;;;;;5023148;28;11123;-83
2022/02/21 10:49:47;;;;;;;;;2.00;1.75;;;;;;;;5029097;28;10214;-79
2022/02/21 10:52:18;;;;;;;;;4.50;2.00;;;;;;;;5026721;28;10255;-80
2022/02/21 10:54:45;;;;;;;;;1.00;1.00;;;;;;;;5033179;28;10341;-82
2022/02/21 10:57:15;;;;;;;;;2.00;2.00;;;;;;;;5011626;28;10276;-80
2022/02/21 10:59:43;;;;;;;;;2.00;2.00;;;;;;;;5023947;28;11312;-79
2022/02/21 11:02:14;;;;;;;;;0.50;0.50;;;;;;;;5031672;28;10259;-79
2022/02/21 11:04:43;;;;;;;;;1.75;1.50;;;;;;;;5024827;28;10265;-80
2022/02/21 11:07:12;;;;;;;;;3.50;2.00;;;;;;;;5027442;28;10374;-79
2022/02/21 11:09:42;;;;;;;;;2.75;1.75;;;;;;;;5028651;28;10321;-77
2022/02/21 11:12:10;;;;;;;;;1.50;1.50;;;;;;;;5027583;28;10401;-82
2022/02/21 11:14:40;;;;;;;;;5.00;1.75;;;;;;;;5035327;28;10411;-78
2022/02/21 11:17:09;;;;;;;;;1.00;1.00;;;;;;;;5024661;28;10325;-81
2022/02/21 11:19:36;;;;;;;;;7.50;2.25;;;;;;;;5037789;28;10000;-81
2022/02/21 11:22:04;;;;;;;;;1.75;1.75;;;;;;;;5029926;28;10040;-79
2022/02/21 11:24:34;;;;;;;;;6.00;2.00;;;;;;;;5028732;28;10268;-80
2022/02/21 11:27:27;;;;;;;;;6.00;2.00;;;;;;;;5028822;28;10189;-78
2022/02/21 11:30:01;;;;;;;;;2.25;2.25;;;;;;;;5035948;28;10115;-82
2022/02/21 11:32:29;;;;;;;;;2.00;2.00;;;;;;;;5039767;28;10005;-82
2022/02/21 11:35:15;;;;;;;;;2.25;2.25;;;;;;;;5032566;28;10105;-84
2022/02/21 11:37:47;;;;;;;;;4.25;4.25;;;;;;;;5014176;28;10108;-78
2022/02/21 11:40:19;;;;;;;;;5.25;2.75;;;;;;;;5033877;28;10385;-83
2022/02/21 11:42:48;;;;;;;;;6.00;3.50;;;;;;;;5028654;28;10319;-77
2022/02/21 11:45:27;;;;;;;;;4.00;2.25;;;;;;;;5018241;28;10024;-75
2022/02/21 11:47:58;;;;;;;;;4.50;2.00;;;;;;;;5012945;28;9883;-79
2022/02/21 11:50:28;;;;;;;;;7.25;2.00;;;;;;;;5004663;28;9770;-80
2022/02/21 11:52:59;;;;;;;;;1.50;1.50;;;;;;;;5003192;28;9829;-80
2022/02/21 11:55:40;;;;;;;;;3.75;3.00;;;;;;;;4992880;28;10641;-79
2022/02/21 11:58:37;;;;;;;;;10.50;4.00;;;;;;;;5022223;28;10606;-78
2022/02/21 12:01:20;;;;;;;;;4.25;2.75;;;;;;;;5015104;28;10081;-81
2022/02/21 12:04:15;;;;;;;;;4.75;1.50;;;;;;;;5001263;28;10063;-78
2022/02/21 12:06:54;;;;;;;;;2.50;2.50;;;;;;;;5022333;28;9880;-79
2022/02/21 12:09:21;;;;;;;;;5.50;3.75;;;;;;;;5023732;28;9865;-79
2022/02/21 12:11:49;;;;;;;;;3.75;2.25;;;;;;;;5026669;28;9605;-80
2022/02/21 12:14:29;;;;;;;;;5.50;3.75;;;;;;;;5020026;28;9535;-81
2022/02/21 12:17:07;;;;;;;;;4.67;0.00;;;;;;;;5013468;28;9572;-77
2022/02/21 12:19:40;;;;;;;;;5.33;3.00;;;;;;;;4999996;28;9448;-80
2022/02/21 12:22:18;;;;;;;;;2.00;2.00;;;;;;;;5021857;28;9420;-78
2022/02/21 12:25:07;;;;;;;;;4.67;2.00;;;;;;;;5027085;28;9279;-76
2022/02/21 12:27:35;;;;;;;;;7.33;3.33;;;;;;;;5012303;28;9343;-79
2022/02/21 12:30:04;;;;;;;;;1.25;1.25;;;;;;;;5015956;28;9354;-77
2022/02/21 12:32:32;;;;;;;;;7.00;3.00;;;;;;;;5002680;28;9386;-78
2022/02/21 12:35:00;;;;;;;;;7.00;5.50;;;;;;;;4997004;28;9407;-79
2022/02/21 12:37:28;;;;;;;;;2.00;2.00;;;;;;;;4997328;28;9727;-78
2022/02/21 12:39:55;;;;;;;;;4.50;4.50;;;;;;;;4991183;28;9627;-80
2022/02/21 12:42:24;;;;;;;;;6.00;5.50;;;;;;;;5000011;28;9894;-81
2022/02/21 12:44:52;;;;;;;;;4.75;1.00;;;;;;;;4999860;28;11262;-81
2022/02/21 12:47:22;;;;;;;;;9.75;4.25;;;;;;;;4997912;28;10115;-85
2022/02/21 12:49:51;;;;;;;;;4.25;2.00;;;;;;;;5002771;28;10238;-80
2022/02/21 12:52:19;;;;;;;;;9.50;5.75;;;;;;;;4992890;28;10050;-81
2022/02/21 12:54:54;;;;;;;;;4.25;2.25;;;;;;;;4994565;28;10297;-79
2022/02/21 12:57:23;;;;;;;;;5.50;3.00;;;;;;;;4997000;28;10198;-80
2022/02/21 12:59:52;;;;;;;;;2.25;2.25;;;;;;;;5002592;28;10259;-82
2022/02/21 13:02:22;;;;;;;;;8.50;2.00;;;;;;;;5000999;28;10328;-80
2022/02/21 13:04:50;;;;;;;;;7.00;3.00;;;;;;;;5003932;28;10306;-79
2022/02/21 13:07:17;;;;;;;;;6.00;2.00;;;;;;;;5001160;28;10357;-82
2022/02/21 13:09:45;;;;;;;;;6.00;2.50;;;;;;;;5007473;28;11122;-81
2022/02/21 13:12:16;;;;;;;;;7.75;6.00;;;;;;;;5009054;28;10349;-78
2022/02/21 13:14:44;;;;;;;;;3.00;2.25;;;;;;;;5006091;28;10486;-79
2022/02/21 13:17:12;;;;;;;;;5.25;5.25;;;;;;;;5008155;28;10608;-79
2022/02/21 13:19:43;;;;;;;;;7.50;3.00;;;;;;;;5012133;28;10570;-78
2022/02/21 13:22:12;;;;;;;;;5.00;2.75;;;;;;;;5013068;28;10807;-78
2022/02/21 13:24:41;;;;;;;;;3.00;3.00;;;;;;;;4998637;28;11486;-79
2022/02/21 13:27:10;;;;;;;;;3.00;3.00;;;;;;;;4995159;28;10584;-79
2022/02/21 13:29:39;;;;;;;;;2.50;2.50;;;;;;;;5003610;28;10611;-84
2022/02/21 13:32:09;;;;;;;;;5.25;2.75;;;;;;;;5020084;28;10492;-80
2022/02/21 13:34:53;;;;;;;;;2.75;2.00;;;;;;;;5023474;28;10668;-79
2022/02/21 13:37:23;;;;;;;;;2.50;2.50;;;;;;;;5056656;28;11452;-79
2022/02/21 13:39:53;;;;;;;;;6.75;5.50;;;;;;;;5057555;28;10533;-79
2022/02/21 13:42:39;;;;;;;;;2.75;2.00;;;;;;;;5025401;28;10547;-79
2022/02/21 13:45:24;;;;;;;;;3.50;3.00;;;;;;;;5018811;28;10706;-80
2022/02/21 13:48:13;;;;;;;;;2.00;2.00;;;;;;;;5025340;28;10528;-80
2022/02/21 13:50:48;;;;;;;;;6.00;3.50;;;;;;;;5017359;28;10460;-79
2022/02/21 13:53:17;;;;;;;;;7.50;3.00;;;;;;;;5015525;28;11510;-79
2022/02/21 13:55:54;;;;;;;;;2.00;2.00;;;;;;;;5025407;28;10638;-80
2022/02/21 13:58:30;;;;;;;;;9.50;3.00;;;;;;;;5024550;28;10431;-80
2022/02/21 14:01:08;;;;;;;;;5.75;5.50;;;;;;;;5005670;28;10561;-79
2022/02/21 14:03:39;;;;;;;;;7.00;2.75;;;;;;;;5017370;28;10351;-80
2022/02/21 14:06:08;;;;;;;;;6.25;5.00;;;;;;;;5016079;28;10271;-79
2022/02/21 14:08:39;;;;;;;;;13.75;2.75;;;;;;;;5020888;28;10279;-79
2022/02/21 14:11:07;;;;;;;;;2.00;1.00;;;;;;;;5024393;28;10751;-80
2022/02/21 14:13:34;;;;;;;;;7.50;3.75;;;;;;;;5025161;28;10281;-79
2022/02/21 14:16:02;;;;;;;;;3.00;1.50;;;;;;;;5023750;28;10328;-80
2022/02/21 14:18:29;;;;;;;;;5.25;2.00;;;;;;;;5022513;28;10266;-79
2022/02/21 14:20:57;;;;;;;;;6.00;2.25;;;;;;;;5006091;28;10133;-80
2022/02/21 14:23:26;;;;;;;;;2.25;2.25;;;;;;;;5024846;28;10300;-79
2022/02/21 14:25:53;;;;;;;;;2.75;2.00;;;;;;;;5024363;28;10158;-80
2022/02/21 14:28:20;;;;;;;;;3.00;1.25;;;;;;;;5012933;28;10125;-80
2022/02/21 14:30:48;;;;;;;;;7.25;4.25;;;;;;;;5022980;28;10099;-81
2022/02/21 14:33:15;;;;;;;;;4.50;2.25;;;;;;;;5023814;28;10965;-78
2022/02/21 14:35:43;;;;;;;;;3.00;3.00;;;;;;;;5023508;28;10114;-81
2022/02/21 14:38:12;;;;;;;;;4.25;2.00;;;;;;;;5023431;28;10153;-80
2022/02/21 14:40:41;;;;;;;;;2.25;2.00;;;;;;;;5005029;28;10083;-80
2022/02/21 14:43:10;;;;;;;;;8.00;4.00;;;;;;;;5006433;28;10040;-80
2022/02/21 14:45:38;;;;;;;;;5.75;2.75;;;;;;;;5023695;28;10229;-80
2022/02/21 14:48:06;;;;;;;;;7.00;4.25;;;;;;;;5024065;28;10166;-80
2022/02/21 14:50:34;;;;;;;;;1.75;1.75;;;;;;;;5022313;28;10190;-79
2022/02/21 14:53:01;;;;;;;;;6.50;3.00;;;;;;;;5019148;28;10174;-80
2022/02/21 14:55:29;;;;;;;;;7.25;2.00;;;;;;;;5023192;28;10160;-78